Time;durP1;ratioP1;P1;durP2;ratioP2;P2;SDS_P1;SDS_P2;PMS_P1;PMS_P2;Temp;Humidity;BMP_temperature;BMP_pressure;BME280_temperature;BME280_humidity;BME280_pressure;Samples;Min_cycle;Max_cycle;Signal;HPM_P1;HPM_P2
2022/05/02 00:03:50;;;;;;;9.25;6.47;;;;;;;;;;10427639;28;20037;-74
2022/05/02 00:08:50;;;;;;;10.20;6.57;;;;;;;;;;10425807;28;20028;-74
2022/05/02 00:13:51;;;;;;;10.27;6.25;;;;;;;;;;10426020;28;20028;-74
2022/05/02 00:18:51;;;;;;;8.38;6.38;;;;;;;;;;10442908;28;20036;-69
2022/05/02 00:23:51;;;;;;;15.25;6.18;;;;;;;;;;10425399;28;20040;-72
2022/05/02 00:28:52;;;;;;;12.70;6.07;;;;;;;;;;10426693;28;20025;-76
2022/05/02 00:33:52;;;;;;;8.65;6.03;;;;;;;;;;10426323;28;20520;-75
2022/05/02 00:38:52;;;;;;;8.68;5.57;;;;;;;;;;10394513;28;20026;-75
2022/05/02 00:43:53;;;;;;;10.90;6.55;;;;;;;;;;10384359;28;20033;-72
2022/05/02 00:48:54;;;;;;;10.02;5.88;;;;;;;;;;10390089;28;20029;-74
2022/05/02 00:53:54;;;;;;;6.93;5.40;;;;;;;;;;10392609;28;20021;-72
2022/05/02 00:58:54;;;;;;;9.40;6.10;;;;;;;;;;10410245;28;20025;-73
2022/05/02 01:03:55;;;;;;;10.55;7.10;;;;;;;;;;10392997;28;20091;-73
2022/05/02 01:08:56;;;;;;;6.25;5.22;;;;;;;;;;10391940;28;20045;-74
2022/05/02 01:13:56;;;;;;;10.63;5.80;;;;;;;;;;10408633;28;20017;-74
2022/05/02 01:18:58;;;;;;;7.10;6.03;;;;;;;;;;10392150;28;20418;-69
2022/05/02 01:23:59;;;;;;;4.57;4.18;;;;;;;;;;10374898;28;20030;-69
2022/05/02 01:29:00;;;;;;;5.72;4.45;;;;;;;;;;10408167;28;20040;-71
2022/05/02 01:34:01;;;;;;;7.00;4.90;;;;;;;;;;10409700;28;20052;-72
2022/05/02 01:39:01;;;;;;;7.38;4.70;;;;;;;;;;10391792;28;20034;-70
2022/05/02 01:44:01;;;;;;;5.70;4.72;;;;;;;;;;10408261;28;20025;-70
2022/05/02 01:49:02;;;;;;;9.07;5.53;;;;;;;;;;10446294;28;20041;-72
2022/05/02 01:54:02;;;;;;;6.07;4.75;;;;;;;;;;10429821;28;20031;-71
2022/05/02 01:59:03;;;;;;;5.50;4.17;;;;;;;;;;10447702;28;20029;-71
2022/05/02 02:09:23;;;;;;;7.40;5.95;;;;;;;;;;10449347;28;20522;-74
2022/05/02 02:14:23;;;;;;;10.57;5.53;;;;;;;;;;10390429;28;20112;-74
2022/05/02 02:19:23;;;;;;;12.15;6.68;;;;;;;;;;10440938;28;20496;-75
2022/05/02 02:24:24;;;;;;;8.30;6.78;;;;;;;;;;10480858;28;20393;-75
2022/05/02 02:29:24;;;;;;;10.82;8.20;;;;;;;;;;10472122;28;20024;-73
2022/05/02 02:34:24;;;;;;;10.03;7.57;;;;;;;;;;10471765;28;20049;-74
2022/05/02 02:39:25;;;;;;;10.45;8.25;;;;;;;;;;10472015;28;20025;-72
2022/05/02 02:44:25;;;;;;;14.32;8.57;;;;;;;;;;10466047;28;20025;-76
2022/05/02 02:49:25;;;;;;;12.77;8.93;;;;;;;;;;10446716;28;20074;-72
2022/05/02 02:54:26;;;;;;;11.20;8.95;;;;;;;;;;10429331;28;20017;-75
2022/05/02 02:59:26;;;;;;;11.65;7.95;;;;;;;;;;10414936;28;20021;-76
2022/05/02 03:09:45;;;;;;;17.10;8.75;;;;;;;;;;10402810;28;20030;-74
2022/05/02 03:14:46;;;;;;;11.43;8.37;;;;;;;;;;10385286;28;20018;-77
2022/05/02 03:19:47;;;;;;;11.27;8.35;;;;;;;;;;10387646;28;20017;-73
2022/05/02 03:24:47;;;;;;;10.02;7.85;;;;;;;;;;10371073;28;20090;-77
2022/05/02 03:29:47;;;;;;;9.90;7.57;;;;;;;;;;10405491;28;20022;-70
2022/05/02 03:34:47;;;;;;;11.38;7.38;;;;;;;;;;10404091;28;20833;-70
2022/05/02 03:39:48;;;;;;;14.52;8.80;;;;;;;;;;10403716;28;20394;-77
2022/05/02 03:44:48;;;;;;;11.63;8.73;;;;;;;;;;10403346;28;20508;-71
2022/05/02 03:49:48;;;;;;;15.53;8.63;;;;;;;;;;10404429;28;20033;-75
2022/05/02 03:54:49;;;;;;;13.10;8.40;;;;;;;;;;10404094;28;20029;-77
2022/05/02 03:59:49;;;;;;;12.80;7.40;;;;;;;;;;10402653;28;20079;-71
2022/05/02 04:04:49;;;;;;;12.35;7.15;;;;;;;;;;10404487;28;20030;-71
2022/05/02 04:09:49;;;;;;;11.00;7.67;;;;;;;;;;10386784;28;20040;-71
2022/05/02 04:14:50;;;;;;;14.75;6.90;;;;;;;;;;10386123;28;20036;-72
2022/05/02 04:19:50;;;;;;;12.57;6.50;;;;;;;;;;10402709;28;20037;-74
2022/05/02 04:24:50;;;;;;;10.23;6.10;;;;;;;;;;10385192;28;20529;-72
2022/05/02 04:29:51;;;;;;;10.52;6.60;;;;;;;;;;10402121;28;20034;-72
2022/05/02 04:34:54;;;;;;;19.45;7.25;;;;;;;;;;10441626;28;20052;-77
2022/05/02 04:39:54;;;;;;;17.20;7.07;;;;;;;;;;10452437;28;20091;-77
2022/05/02 04:44:54;;;;;;;8.83;6.37;;;;;;;;;;10385496;28;20429;-74
2022/05/02 04:49:55;;;;;;;8.97;6.13;;;;;;;;;;10399454;28;20032;-75
2022/05/02 04:54:55;;;;;;;9.38;6.38;;;;;;;;;;10426524;28;20044;-75
2022/05/02 04:59:55;;;;;;;8.90;5.95;;;;;;;;;;10430910;28;20067;-73
2022/05/02 05:04:55;;;;;;;6.72;5.20;;;;;;;;;;10385714;28;20025;-72
2022/05/02 05:09:56;;;;;;;10.65;5.90;;;;;;;;;;10373156;28;20060;-75
2022/05/02 05:20:57;;;;;;;9.32;7.35;;;;;;;;;;10371481;28;20030;-75
2022/05/02 05:26:05;;;;;;;9.82;7.40;;;;;;;;;;10402392;28;20086;-72
2022/05/02 05:31:24;;;;;;;11.75;7.15;;;;;;;;;;10392690;28;20025;-72
2022/05/02 05:36:34;;;;;;;9.45;6.68;;;;;;;;;;10448250;28;20555;-72
2022/05/02 05:41:54;;;;;;;8.52;6.22;;;;;;;;;;10449051;28;20485;-77
2022/05/02 05:46:57;;;;;;;11.13;6.32;;;;;;;;;;10449069;28;20032;-72
2022/05/02 05:52:24;;;;;;;10.82;6.15;;;;;;;;;;10448955;28;20040;-73
2022/05/02 05:57:46;;;;;;;7.55;4.28;;;;;;;;;;10425779;28;20432;-70
2022/05/02 06:03:01;;;;;;;4.88;3.42;;;;;;;;;;10448129;28;20480;-70
2022/05/02 06:08:03;;;;;;;6.43;3.70;;;;;;;;;;10447859;28;20061;-73
2022/05/02 06:13:04;;;;;;;8.75;4.72;;;;;;;;;;10449030;28;20021;-70
2022/05/02 06:23:24;;;;;;;5.35;4.60;;;;;;;;;;10444892;28;20032;-75
2022/05/02 06:28:33;;;;;;;10.75;4.40;;;;;;;;;;10427354;28;20036;-70
2022/05/02 06:33:34;;;;;;;9.73;4.40;;;;;;;;;;10426803;28;20033;-71
2022/05/02 06:38:37;;;;;;;6.35;4.15;;;;;;;;;;10416094;28;20107;-76
2022/05/02 06:43:47;;;;;;;9.60;7.35;;;;;;;;;;10424272;28;20024;-70
2022/05/02 06:49:01;;;;;;;11.98;9.25;;;;;;;;;;10410314;28;20033;-70
2022/05/02 06:54:25;;;;;;;11.68;8.77;;;;;;;;;;10426426;28;20127;-71
2022/05/02 06:59:25;;;;;;;10.32;7.72;;;;;;;;;;10428981;28;20036;-69
2022/05/02 07:04:41;;;;;;;11.07;8.97;;;;;;;;;;10427453;28;20029;-69
2022/05/02 07:10:03;;;;;;;12.13;7.72;;;;;;;;;;10426794;28;20295;-77
2022/05/02 07:15:17;;;;;;;10.70;8.60;;;;;;;;;;10426481;28;20025;-70
2022/05/02 07:20:41;;;;;;;8.88;7.50;;;;;;;;;;10426440;28;20029;-71
2022/05/02 07:25:47;;;;;;;11.20;7.05;;;;;;;;;;10417339;28;20040;-70
2022/05/02 07:30:48;;;;;;;8.65;7.20;;;;;;;;;;10404208;28;20059;-70
2022/05/02 07:35:49;;;;;;;6.43;5.25;;;;;;;;;;10425240;28;20053;-70
2022/05/02 07:46:09;;;;;;;7.47;5.72;;;;;;;;;;10425048;28;20365;-72
2022/05/02 07:51:11;;;;;;;6.05;4.05;;;;;;;;;;10406138;28;20563;-71
2022/05/02 07:56:13;;;;;;;10.65;4.38;;;;;;;;;;10406083;28;20671;-74
2022/05/02 08:01:20;;;;;;;5.10;4.15;;;;;;;;;;10420002;28;20029;-71
2022/05/02 08:06:21;;;;;;;;;;;;;;;;;;10419608;28;20056;-71
2022/05/02 08:11:39;;;;;;;6.78;4.75;;;;;;;;;;10407199;28;19919;-72
2022/05/02 08:16:46;;;;;;;7.53;5.78;;;;;;;;;;10403699;28;20059;-71
2022/05/02 08:27:15;;;;;;;11.32;5.78;;;;;;;;;;10405279;28;20621;-71
2022/05/02 08:27:17;;;;;;;10.07;6.70;;;;;;;;;;10424004;28;20033;-71
2022/05/02 08:32:23;;;;;;;9.25;7.43;;;;;;;;;;10422648;28;20044;-69
2022/05/02 08:37:36;;;;;;;11.40;7.90;;;;;;;;;;10421456;28;20049;-74
2022/05/02 08:42:36;;;;;;;10.55;6.47;;;;;;;;;;10424483;28;20033;-69
2022/05/02 08:47:48;;;;;;;11.90;6.75;;;;;;;;;;10406463;28;20021;-73
2022/05/02 08:52:52;;;;;;;10.45;6.53;;;;;;;;;;10420628;28;20044;-70
2022/05/02 08:58:04;;;;;;;7.80;5.93;;;;;;;;;;10421440;28;20561;-70
2022/05/02 09:03:17;;;;;;;9.18;5.68;;;;;;;;;;10419457;28;20025;-70
2022/05/02 09:08:36;;;;;;;8.68;5.85;;;;;;;;;;10406120;28;20051;-70
2022/05/02 09:13:57;;;;;;;10.68;5.03;;;;;;;;;;10427100;28;20500;-71
2022/05/02 09:19:15;;;;;;;4.60;2.70;;;;;;;;;;10397605;28;20041;-70
2022/05/02 09:24:34;;;;;;;5.13;3.45;;;;;;;;;;10426738;28;20531;-69
2022/05/02 09:29:37;;;;;;;7.35;4.05;;;;;;;;;;10426486;28;20029;-76
2022/05/02 09:34:57;;;;;;;2.90;2.60;;;;;;;;;;10428411;28;20056;-68
2022/05/02 09:40:01;;;;;;;3.13;2.70;;;;;;;;;;10408258;28;20048;-73
2022/05/02 09:50:29;;;;;;;;;;;;;;;;;;10426462;28;20042;-71
2022/05/02 10:01:26;;;;;;;3.47;3.17;;;;;;;;;;10430247;28;20020;-73
2022/05/02 10:06:31;;;;;;;5.95;3.70;;;;;;;;;;10437759;28;20448;-71
2022/05/02 10:11:32;;;;;;;4.45;3.95;;;;;;;;;;10431945;28;20036;-72
2022/05/02 10:16:42;;;;;;;8.05;4.57;;;;;;;;;;10430883;28;20033;-71
2022/05/02 10:22:01;;;;;;;10.07;5.57;;;;;;;;;;10431227;28;20025;-73
2022/05/02 10:27:01;;;;;;;5.15;3.72;;;;;;;;;;10430723;28;20108;-73
2022/05/02 10:32:08;;;;;;;6.30;3.83;;;;;;;;;;10432265;28;20047;-71
2022/05/02 10:37:11;;;;;;;4.68;3.45;;;;;;;;;;10428730;28;20423;-71
2022/05/02 10:42:12;;;;;;;4.53;3.60;;;;;;;;;;10413773;28;20076;-74
2022/05/02 10:47:14;;;;;;;3.47;3.17;;;;;;;;;;10429645;28;20122;-67
2022/05/02 10:52:37;;;;;;;5.40;2.90;;;;;;;;;;10441850;28;20033;-73
2022/05/02 10:57:38;;;;;;;3.35;2.47;;;;;;;;;;10388577;28;20083;-77
2022/05/02 11:02:39;;;;;;;4.47;2.88;;;;;;;;;;10387712;28;20036;-68
2022/05/02 11:07:45;;;;;;;3.08;2.53;;;;;;;;;;10388243;28;20422;-69
2022/05/02 11:12:47;;;;;;;3.15;2.63;;;;;;;;;;10388173;28;20493;-70
2022/05/02 11:17:47;;;;;;;9.65;3.85;;;;;;;;;;10387522;28;20116;-69
2022/05/02 11:23:08;;;;;;;5.70;2.88;;;;;;;;;;10387329;28;20021;-74
2022/05/02 11:28:08;;;;;;;5.32;3.20;;;;;;;;;;10403087;28;20064;-70
2022/05/02 11:33:14;;;;;;;4.97;3.80;;;;;;;;;;10385904;28;20021;-74
2022/05/02 11:38:33;;;;;;;5.53;3.25;;;;;;;;;;10403467;28;20197;-70
2022/05/02 11:43:36;;;;;;;6.10;3.20;;;;;;;;;;10390807;28;20109;-73
2022/05/02 11:48:52;;;;;;;4.95;4.45;;;;;;;;;;10386748;28;20029;-76
2022/05/02 11:53:54;;;;;;;2.90;2.70;;;;;;;;;;10386543;28;20021;-68
2022/05/02 11:59:02;;;;;;;5.97;3.65;;;;;;;;;;10386004;28;20032;-73
2022/05/02 12:04:03;;;;;;;5.72;3.50;;;;;;;;;;10385916;28;20084;-74
2022/05/02 12:09:03;;;;;;;5.25;4.38;;;;;;;;;;10389564;28;20409;-68
2022/05/02 12:14:04;;;;;;;6.90;5.13;;;;;;;;;;10428013;28;20037;-69
2022/05/02 12:19:08;;;;;;;8.85;4.75;;;;;;;;;;10422869;28;20263;-70
2022/05/02 12:24:09;;;;;;;9.30;4.43;;;;;;;;;;10406656;28;20032;-69
2022/05/02 12:29:14;;;;;;;4.78;4.10;;;;;;;;;;10405061;28;20032;-69
2022/05/02 12:34:14;;;;;;;6.78;3.20;;;;;;;;;;10421726;28;20029;-68
2022/05/02 12:39:23;;;;;;;3.00;2.65;;;;;;;;;;10406842;28;20029;-70
2022/05/02 12:44:25;;;;;;;8.77;2.95;;;;;;;;;;10411234;28;20493;-73
2022/05/02 12:49:28;;;;;;;6.40;4.20;;;;;;;;;;10427090;28;20404;-72
2022/05/02 12:54:29;;;;;;;7.30;3.30;;;;;;;;;;10390622;28;20112;-73
2022/05/02 13:04:48;;;;;;;5.05;3.80;;;;;;;;;;10429728;28;20429;-75
2022/05/02 13:09:51;;;;;;;3.38;3.08;;;;;;;;;;10432466;28;20066;-76
2022/05/02 13:14:58;;;;;;;4.88;3.33;;;;;;;;;;10409210;28;20056;-70
2022/05/02 13:19:58;;;;;;;4.10;3.10;;;;;;;;;;10429583;28;20555;-71
2022/05/02 13:25:00;;;;;;;3.78;3.47;;;;;;;;;;10434022;28;20120;-74
2022/05/02 13:30:06;;;;;;;7.53;2.88;;;;;;;;;;10428166;28;20036;-71
2022/05/02 13:35:14;;;;;;;3.78;2.67;;;;;;;;;;10427993;28;20033;-71
2022/05/02 13:40:15;;;;;;;5.47;3.30;;;;;;;;;;10426795;28;20036;-73
2022/05/02 13:45:16;;;;;;;4.93;3.65;;;;;;;;;;10412660;28;20112;-73
2022/05/02 13:50:19;;;;;;;4.13;3.13;;;;;;;;;;10429098;28;20035;-74
2022/05/02 13:55:33;;;;;;;6.72;2.85;;;;;;;;;;10425632;28;20028;-69
2022/05/02 14:06:01;;;;;;;4.65;2.80;;;;;;;;;;10427376;28;20140;-74
2022/05/02 14:11:01;;;;;;;3.97;2.95;;;;;;;;;;10409038;28;20397;-69
2022/05/02 14:16:05;;;;;;;4.67;3.20;;;;;;;;;;10427726;28;20026;-70
2022/05/02 14:21:06;;;;;;;4.40;3.40;;;;;;;;;;10410904;28;20029;-70
2022/05/02 14:26:11;;;;;;;3.97;3.00;;;;;;;;;;10426649;28;20032;-76
2022/05/02 14:31:12;;;;;;;6.13;2.92;;;;;;;;;;10406839;28;20036;-71
2022/05/02 14:36:16;;;;;;;3.72;3.33;;;;;;;;;;10425778;28;20069;-74
2022/05/02 14:41:17;;;;;;;5.03;3.05;;;;;;;;;;10424549;28;20040;-73
2022/05/02 14:46:20;;;;;;;5.32;3.67;;;;;;;;;;10427299;28;20099;-70
2022/05/02 14:51:25;;;;;;;5.90;3.55;;;;;;;;;;10423584;28;20106;-70
2022/05/02 14:56:28;;;;;;;6.75;4.40;;;;;;;;;;10407276;28;20091;-69
2022/05/02 15:01:30;;;;;;;5.68;3.03;;;;;;;;;;10425454;28;20037;-70
2022/05/02 15:06:31;;;;;;;7.50;3.78;;;;;;;;;;10409489;28;20144;-69
2022/05/02 15:11:38;;;;;;;8.95;3.60;;;;;;;;;;10405050;28;20399;-68
2022/05/02 15:16:44;;;;;;;5.88;3.33;;;;;;;;;;10426845;28;20029;-69
2022/05/02 15:22:04;;;;;;;3.38;2.80;;;;;;;;;;10405296;28;20057;-70
2022/05/02 15:27:23;;;;;;;5.05;3.53;;;;;;;;;;10423298;28;20029;-73
2022/05/02 15:37:43;;;;;;;4.75;3.53;;;;;;;;;;10422798;28;20120;-70
2022/05/02 15:43:04;;;;;;;6.78;3.63;;;;;;;;;;10421250;28;20081;-73
2022/05/02 15:48:24;;;;;;;5.15;3.40;;;;;;;;;;10422717;28;20033;-69
2022/05/02 15:53:24;;;;;;;9.35;2.83;;;;;;;;;;10405004;28;20045;-70
2022/05/02 15:58:24;;;;;;;4.45;3.30;;;;;;;;;;10422163;28;20678;-71
2022/05/02 16:03:25;;;;;;;7.30;4.47;;;;;;;;;;10423062;28;20531;-69
2022/05/02 16:13:45;;;;;;;5.70;3.92;;;;;;;;;;10421912;28;20033;-70
2022/05/02 16:18:46;;;;;;;7.57;4.70;;;;;;;;;;10424130;28;20489;-71
2022/05/02 16:23:47;;;;;;;6.57;3.70;;;;;;;;;;10424673;28;20032;-74
2022/05/02 16:28:48;;;;;;;13.40;6.80;;;;;;;;;;10404343;28;20036;-70
2022/05/02 16:33:48;;;;;;;5.55;3.45;;;;;;;;;;10421448;28;20106;-73
2022/05/02 16:38:49;;;;;;;7.25;4.03;;;;;;;;;;10403978;28;20041;-71
2022/05/02 16:43:51;;;;;;;5.93;3.50;;;;;;;;;;10423468;28;20077;-73
2022/05/02 16:49:02;;;;;;;4.22;3.25;;;;;;;;;;10408420;28;20481;-69
2022/05/02 16:54:07;;;;;;;7.15;3.70;;;;;;;;;;10422714;28;20554;-72
2022/05/02 16:59:07;;;;;;;4.80;3.30;;;;;;;;;;10402577;28;20029;-69
2022/05/02 17:04:10;;;;;;;7.63;4.43;;;;;;;;;;10405451;28;20060;-74
2022/05/02 17:09:11;;;;;;;6.97;3.70;;;;;;;;;;10406056;28;20466;-73
2022/05/02 17:14:12;;;;;;;4.53;3.47;;;;;;;;;;10404611;28;20082;-71
2022/05/02 17:19:20;;;;;;;6.20;4.22;;;;;;;;;;10406175;28;20029;-69
2022/05/02 17:24:22;;;;;;;8.35;4.35;;;;;;;;;;10399792;28;20036;-71
2022/05/02 17:29:27;;;;;;;7.78;4.88;;;;;;;;;;10406146;28;20033;-77
2022/05/02 17:34:27;;;;;;;9.07;4.85;;;;;;;;;;10431115;28;20037;-70
2022/05/02 17:39:32;;;;;;;9.02;5.10;;;;;;;;;;10417755;28;20053;-75
2022/05/02 17:44:35;;;;;;;7.15;3.75;;;;;;;;;;10418178;28;20024;-74
2022/05/02 17:49:37;;;;;;;4.32;3.92;;;;;;;;;;10434013;28;20033;-73
2022/05/02 17:54:47;;;;;;;7.97;4.07;;;;;;;;;;10430559;28;20021;-70
2022/05/02 18:00:07;;;;;;;8.45;4.78;;;;;;;;;;10417697;28;20017;-70
2022/05/02 18:05:09;;;;;;;12.02;6.07;;;;;;;;;;10435771;28;20021;-75
2022/05/02 18:10:17;;;;;;;9.68;6.13;;;;;;;;;;10413774;28;20025;-73
2022/05/02 18:15:18;;;;;;;12.65;7.53;;;;;;;;;;10426149;28;20021;-73
2022/05/02 18:20:20;;;;;;;15.85;7.88;;;;;;;;;;10412106;28;20032;-71
2022/05/02 18:25:26;;;;;;;15.18;6.57;;;;;;;;;;10427130;28;20104;-69
2022/05/02 18:30:27;;;;;;;9.80;5.32;;;;;;;;;;10423541;28;20112;-74
2022/05/02 18:40:50;;;;;;;7.25;5.57;;;;;;;;;;10428170;28;20401;-70
2022/05/02 18:56:35;;;;;;;9.90;4.35;;;;;;;;;;10430107;28;20041;-69
2022/05/02 19:01:36;;;;;;;7.07;5.00;;;;;;;;;;10408424;28;20064;-73
2022/05/02 19:06:38;;;;;;;6.53;4.80;;;;;;;;;;10423757;28;20112;-76
2022/05/02 19:11:41;;;;;;;12.98;5.78;;;;;;;;;;10406796;28;20029;-70
2022/05/02 19:16:43;;;;;;;11.00;4.97;;;;;;;;;;10422668;28;20029;-69
2022/05/02 19:22:01;;;;;;;6.82;4.72;;;;;;;;;;10425535;28;20082;-69
2022/05/02 19:27:02;;;;;;;9.55;5.90;;;;;;;;;;10404099;28;20024;-69
2022/05/02 19:32:03;;;;;;;13.98;7.10;;;;;;;;;;10424026;28;20086;-70
2022/05/02 19:42:23;;;;;;;9.43;6.40;;;;;;;;;;10419021;28;20104;-78
2022/05/02 19:47:27;;;;;;;10.05;6.68;;;;;;;;;;10443568;28;20021;-71
2022/05/02 19:52:27;;;;;;;11.38;7.28;;;;;;;;;;10443407;28;20025;-72
2022/05/02 19:57:28;;;;;;;14.03;7.97;;;;;;;;;;10444200;28;20507;-68
2022/05/02 20:02:29;;;;;;;8.52;6.93;;;;;;;;;;10443284;28;20522;-74
2022/05/02 20:07:29;;;;;;;13.05;7.70;;;;;;;;;;10427035;28;20093;-73
2022/05/02 20:12:29;;;;;;;10.67;6.97;;;;;;;;;;10444293;28;20028;-70
2022/05/02 20:17:30;;;;;;;12.25;7.18;;;;;;;;;;10445072;28;20013;-70
2022/05/02 20:22:30;;;;;;;12.50;7.60;;;;;;;;;;10427167;28;20662;-70
2022/05/02 20:27:34;;;;;;;15.70;7.43;;;;;;;;;;10442978;28;20350;-75
2022/05/02 20:37:53;;;;;;;;;;;;;;;;;;10443740;28;20124;-73
2022/05/02 20:42:55;;;;;;;11.38;8.30;;;;;;;;;;10426353;28;19909;-71
2022/05/02 20:48:01;;;;;;;19.85;9.82;;;;;;;;;;10444114;28;20048;-72
2022/05/02 20:53:05;;;;;;;16.75;9.35;;;;;;;;;;10425674;28;20017;-72
2022/05/02 20:58:05;;;;;;;17.52;9.32;;;;;;;;;;10443361;28;20048;-71
2022/05/02 21:03:05;;;;;;;15.07;10.00;;;;;;;;;;10427276;28;20104;-71
2022/05/02 21:08:06;;;;;;;16.08;10.15;;;;;;;;;;10450737;28;20551;-71
2022/05/02 21:13:12;;;;;;;17.57;11.50;;;;;;;;;;10433955;28;20583;-73
2022/05/02 21:18:26;;;;;;;15.30;10.02;;;;;;;;;;10449922;28;20115;-72
2022/05/02 21:23:27;;;;;;;17.77;10.82;;;;;;;;;;10450470;28;20024;-76
2022/05/02 21:28:48;;;;;;;19.52;12.05;;;;;;;;;;10449687;28;20108;-70
2022/05/02 21:34:03;;;;;;;21.98;12.55;;;;;;;;;;10432291;28;20072;-71
2022/05/02 21:39:03;;;;;;;14.32;8.48;;;;;;;;;;10449514;28;20025;-70
2022/05/02 21:44:04;;;;;;;14.57;9.95;;;;;;;;;;10449587;28;20017;-68
2022/05/02 21:49:04;;;;;;;13.93;9.05;;;;;;;;;;10432092;28;20095;-72
2022/05/02 21:54:05;;;;;;;13.20;8.37;;;;;;;;;;10449261;28;20104;-74
2022/05/02 21:59:05;;;;;;;16.77;9.95;;;;;;;;;;10431872;28;20938;-73
2022/05/02 22:04:06;;;;;;;14.20;7.90;;;;;;;;;;10431564;28;20462;-68
2022/05/02 22:09:06;;;;;;;13.13;9.17;;;;;;;;;;10448999;28;20295;-76
2022/05/02 22:14:06;;;;;;;14.70;8.70;;;;;;;;;;10447936;28;20023;-72
2022/05/02 22:19:07;;;;;;;13.40;8.77;;;;;;;;;;10430335;28;20694;-70
2022/05/02 22:24:07;;;;;;;15.98;9.18;;;;;;;;;;10447700;28;20055;-76
2022/05/02 22:29:07;;;;;;;13.63;9.40;;;;;;;;;;10448882;28;20458;-69
2022/05/02 22:34:07;;;;;;;12.23;8.55;;;;;;;;;;10447923;28;20546;-72
2022/05/02 22:39:08;;;;;;;17.47;9.27;;;;;;;;;;10448061;28;20049;-74
2022/05/02 22:44:08;;;;;;;10.70;8.70;;;;;;;;;;10430290;28;20112;-69
2022/05/02 22:49:08;;;;;;;12.75;8.60;;;;;;;;;;10448170;28;20064;-69
2022/05/02 22:54:11;;;;;;;14.98;9.15;;;;;;;;;;10446566;28;20043;-71
2022/05/02 22:59:13;;;;;;;16.10;9.10;;;;;;;;;;10429647;28;20021;-70
2022/05/02 23:04:22;;;;;;;12.85;8.38;;;;;;;;;;10446116;28;20464;-70
2022/05/02 23:09:22;;;;;;;15.75;8.88;;;;;;;;;;10446637;28;20025;-71
2022/05/02 23:14:23;;;;;;;11.43;8.82;;;;;;;;;;10429232;28;20531;-70
2022/05/02 23:19:24;;;;;;;13.57;8.47;;;;;;;;;;10445752;28;20021;-70
2022/05/02 23:24:25;;;;;;;11.18;7.78;;;;;;;;;;10445536;28;20405;-71
2022/05/02 23:29:25;;;;;;;11.93;6.22;;;;;;;;;;10445056;28;20036;-75
2022/05/02 23:34:29;;;;;;;7.35;6.38;;;;;;;;;;10446121;28;20041;-76
2022/05/02 23:39:49;;;;;;;8.63;5.57;;;;;;;;;;10444477;28;20108;-72
2022/05/02 23:45:02;;;;;;;6.40;5.05;;;;;;;;;;10427323;28;20040;-73
2022/05/02 23:50:04;;;;;;;8.20;6.25;;;;;;;;;;10444783;28;20036;-71
2022/05/02 23:55:10;;;;;;;9.05;6.65;;;;;;;;;;10427332;28;20508;-72
